createdAt,value
2022-08-17T00:02:25.566Z,100870.28
2022-08-17T00:05:17.463Z,100863.72
2022-08-17T00:08:07.403Z,100867.53
2022-08-17T00:10:57.834Z,100861.66
2022-08-17T00:13:57.781Z,100863.44
2022-08-17T00:16:56.839Z,100860.81
2022-08-17T00:19:47.339Z,100858.03
2022-08-17T00:22:37.976Z,100856.47
2022-08-17T00:25:28.170Z,100846.97
2022-08-17T00:28:19.467Z,100850.41
2022-08-17T00:31:11.814Z,100860.00
2022-08-17T00:34:01.708Z,100867.72
2022-08-17T00:36:52.617Z,100874.59
2022-08-17T00:39:44.323Z,100860.91
2022-08-17T00:42:34.043Z,100871.56
2022-08-17T00:45:24.692Z,100856.38
2022-08-17T00:48:29.088Z,100849.72
2022-08-17T00:51:33.517Z,100845.59
2022-08-17T00:54:30.056Z,100837.69
2022-08-17T00:57:29.678Z,100841.22
2022-08-17T01:00:33.189Z,100846.13
2022-08-17T01:03:28.673Z,100841.56
2022-08-17T01:06:20.283Z,100834.03
2022-08-17T01:09:11.164Z,100862.66
2022-08-17T01:12:11.885Z,100864.88
2022-08-17T01:15:01.909Z,100861.56
2022-08-17T01:17:51.812Z,100860.25
2022-08-17T01:20:50.143Z,100854.59
2022-08-17T01:23:43.474Z,100845.47
2022-08-17T01:26:34.869Z,100848.06
2022-08-17T01:29:25.901Z,100848.28
2022-08-17T01:32:17.323Z,100841.19
2022-08-17T01:35:08.891Z,100834.03
2022-08-17T01:37:58.560Z,100830.78
2022-08-17T01:40:57.342Z,100837.59
2022-08-17T01:43:57.703Z,100827.06
2022-08-17T01:46:47.072Z,100825.91
2022-08-17T01:49:38.336Z,100827.59
2022-08-17T01:52:28.414Z,100826.34
2022-08-17T01:55:25.866Z,100822.31
2022-08-17T01:58:20.408Z,100821.16
2022-08-17T02:01:11.544Z,100819.69
2022-08-17T02:04:03.453Z,100827.06
2022-08-17T02:06:55.251Z,100832.38
2022-08-17T02:09:45.811Z,100830.06
2022-08-17T02:12:44.153Z,100831.44
2022-08-17T02:15:36.024Z,100826.94
2022-08-17T02:18:27.775Z,100838.13
2022-08-17T02:21:17.767Z,100844.03
2022-08-17T02:24:12.404Z,100836.75
2022-08-17T02:27:03.294Z,100849.97
2022-08-17T02:29:53.275Z,100848.72
2022-08-17T02:32:43.525Z,100853.13
2022-08-17T02:35:33.841Z,100850.53
2022-08-17T02:44:39.975Z,100844.81
2022-08-17T02:47:31.268Z,100855.50
2022-08-17T02:50:27.503Z,100851.13
2022-08-17T02:53:18.330Z,100859.88
2022-08-17T02:56:08.724Z,100852.03
2022-08-17T02:58:58.570Z,100848.75
2022-08-17T03:01:52.446Z,100850.19
2022-08-17T03:04:45.915Z,100848.78
2022-08-17T03:07:36.409Z,100851.53
2022-08-17T03:10:27.329Z,100854.06
2022-08-17T03:13:18.098Z,100856.63
2022-08-17T03:16:08.657Z,100861.22
2022-08-17T03:18:59.222Z,100846.41
2022-08-17T03:21:55.135Z,100844.34
2022-08-17T03:24:45.485Z,100845.19
2022-08-17T03:27:35.338Z,100838.13
2022-08-17T03:30:30.925Z,100842.91
2022-08-17T03:33:22.080Z,100828.09
2022-08-17T03:36:11.831Z,100834.78
2022-08-17T03:39:01.822Z,100827.69
2022-08-17T03:41:51.872Z,100816.88
2022-08-17T03:44:42.834Z,100803.56
2022-08-17T03:47:51.577Z,100812.75
2022-08-17T03:51:00.517Z,100810.47
2022-08-17T03:54:15.060Z,100802.38
2022-08-17T03:57:08.217Z,100807.75
2022-08-17T03:59:58.574Z,100803.16
2022-08-17T04:02:48.472Z,100797.53
2022-08-17T04:05:39.289Z,100791.69
2022-08-17T04:08:30.870Z,100786.91
2022-08-17T04:11:21.157Z,100789.81
2022-08-17T04:14:12.359Z,100785.88
2022-08-17T04:17:03.464Z,100786.09
2022-08-17T04:19:54.914Z,100783.59
2022-08-17T04:23:08.469Z,100796.34
2022-08-17T04:25:57.775Z,100791.56
2022-08-17T04:28:48.118Z,100789.72
2022-08-17T04:31:38.995Z,100797.03
2022-08-17T04:34:28.761Z,100785.78
2022-08-17T04:37:18.291Z,100784.72
2022-08-17T04:40:27.485Z,100788.03
2022-08-17T04:43:20.521Z,100789.94
2022-08-17T04:46:13.520Z,100790.34
2022-08-17T04:49:07.446Z,100790.13
2022-08-17T04:52:00.112Z,100791.16
2022-08-17T04:54:54.068Z,100788.59
2022-08-17T04:57:45.205Z,100795.47
2022-08-17T05:00:35.592Z,100790.47
2022-08-17T05:03:29.005Z,100783.16
2022-08-17T05:06:19.570Z,100779.41
2022-08-17T05:09:09.333Z,100781.53
2022-08-17T05:12:06.387Z,100783.19
2022-08-17T05:14:58.180Z,100786.53
2022-08-17T05:17:48.005Z,100784.00
2022-08-17T05:20:40.213Z,100774.84
2022-08-17T05:23:42.025Z,100771.72
2022-08-17T05:26:34.018Z,100758.66
2022-08-17T05:29:35.174Z,100768.66
2022-08-17T05:32:38.880Z,100763.06
2022-08-17T05:35:33.965Z,100770.13
2022-08-17T05:38:25.878Z,100774.53
2022-08-17T05:41:16.019Z,100780.75
2022-08-17T05:44:06.031Z,100775.34
2022-08-17T05:46:57.406Z,100783.91
2022-08-17T05:49:49.033Z,100763.25
2022-08-17T05:52:52.684Z,100764.09
2022-08-17T05:55:48.004Z,100764.53
2022-08-17T05:58:44.353Z,100755.34
2022-08-17T06:01:46.449Z,100764.72
2022-08-17T06:04:57.850Z,100762.00
2022-08-17T06:08:02.148Z,100757.00
2022-08-17T06:10:55.252Z,100769.50
2022-08-17T06:13:50.385Z,100775.75
2022-08-17T06:16:43.390Z,100771.56
2022-08-17T06:19:49.521Z,100769.03
2022-08-17T06:22:48.466Z,100772.94
2022-08-17T06:25:50.663Z,100760.22
2022-08-17T06:28:49.510Z,100762.50
2022-08-17T06:31:41.413Z,100762.66
2022-08-17T06:34:31.405Z,100751.44
2022-08-17T06:37:40.551Z,100758.47
2022-08-17T06:40:50.122Z,100746.38
2022-08-17T06:43:51.164Z,100749.72
2022-08-17T06:46:49.966Z,100749.66
2022-08-17T06:49:55.650Z,100748.44
2022-08-17T06:53:24.907Z,100746.66
2022-08-17T06:56:53.962Z,100744.84
2022-08-17T07:00:03.689Z,100737.13
2022-08-17T07:03:22.431Z,100736.94
2022-08-17T07:06:17.569Z,100724.03
2022-08-17T07:09:20.019Z,100728.19
2022-08-17T07:12:26.696Z,100734.84
2022-08-17T07:15:21.632Z,100727.75
2022-08-17T07:18:14.408Z,100737.34
2022-08-17T07:21:17.051Z,100733.38
2022-08-17T07:24:44.548Z,100736.91
2022-08-17T07:27:46.783Z,100742.94
2022-08-17T07:31:03.496Z,100750.22
2022-08-17T07:34:08.174Z,100755.00
2022-08-17T07:37:07.751Z,100758.53
2022-08-17T07:39:59.690Z,100748.91
2022-08-17T07:43:23.217Z,100748.91
2022-08-17T07:46:43.275Z,100742.22
2022-08-17T07:49:33.401Z,100743.84
2022-08-17T07:52:50.313Z,100737.78
2022-08-17T07:55:43.228Z,100742.97
2022-08-17T07:58:34.427Z,100745.84
2022-08-17T08:01:24.175Z,100741.66
2022-08-17T08:08:06.808Z,100731.63
2022-08-17T08:11:06.933Z,100745.69
2022-08-17T08:13:56.150Z,100746.66
2022-08-17T08:17:03.721Z,100738.50
2022-08-17T08:19:56.613Z,100738.00
2022-08-17T08:23:13.405Z,100725.53
2022-08-17T08:26:21.819Z,100726.94
2022-08-17T08:29:33.356Z,100716.28
2022-08-17T08:32:57.268Z,100729.16
2022-08-17T08:35:55.833Z,100730.34
2022-08-17T08:39:06.427Z,100732.66
2022-08-17T08:42:10.573Z,100730.34
2022-08-17T08:45:22.639Z,100729.06
2022-08-17T08:48:53.874Z,100739.47
2022-08-17T08:51:51.661Z,100742.56
2022-08-17T08:55:14.834Z,100745.63
2022-08-17T08:58:42.032Z,100736.25
2022-08-17T09:01:35.096Z,100740.56
2022-08-17T09:05:10.695Z,100738.91
2022-08-17T09:08:12.469Z,100747.19
2022-08-17T09:11:15.845Z,100739.03
2022-08-17T09:14:21.752Z,100736.72
2022-08-17T09:17:23.420Z,100739.16
2022-08-17T09:20:49.935Z,100750.19
2022-08-17T09:24:06.498Z,100751.78
2022-08-17T09:27:07.677Z,100742.19
2022-08-17T09:30:12.083Z,100754.03
2022-08-17T09:33:07.058Z,100754.84
2022-08-17T09:36:05.097Z,100766.50
2022-08-17T09:38:57.950Z,100766.88
2022-08-17T09:41:51.053Z,100764.38
2022-08-17T09:45:03.532Z,100780.94
2022-08-17T09:48:06.337Z,100777.03
2022-08-17T09:51:05.174Z,100778.84
2022-08-17T09:54:05.184Z,100763.06
2022-08-17T09:57:29.258Z,100760.38
2022-08-17T10:00:30.552Z,100755.94
2022-08-17T10:03:29.869Z,100757.63
2022-08-17T10:06:26.896Z,100761.78
2022-08-17T10:09:43.139Z,100771.56
2022-08-17T10:12:46.379Z,100765.50
2022-08-17T10:15:45.342Z,100763.38
2022-08-17T10:18:48.177Z,100757.41
2022-08-17T10:22:01.351Z,100762.72
2022-08-17T10:25:23.263Z,100759.16
2022-08-17T10:28:25.877Z,100757.22
2022-08-17T10:31:36.448Z,100751.84
2022-08-17T10:35:03.214Z,100750.69
2022-08-17T10:38:24.723Z,100751.06
2022-08-17T10:41:26.506Z,100758.97
2022-08-17T10:44:40.391Z,100755.06
2022-08-17T10:48:05.766Z,100747.34
2022-08-17T10:50:59.068Z,100742.72
2022-08-17T10:53:49.799Z,100753.88
2022-08-17T10:56:51.965Z,100752.88
2022-08-17T10:59:43.287Z,100748.84
2022-08-17T11:02:51.612Z,100764.69
2022-08-17T11:06:00.196Z,100760.59
2022-08-17T11:09:09.228Z,100758.91
2022-08-17T11:12:17.512Z,100757.63
2022-08-17T11:15:33.996Z,100772.16
2022-08-17T11:18:58.759Z,100764.19
2022-08-17T11:22:03.649Z,100777.88
2022-08-17T11:24:55.078Z,100777.88
2022-08-17T11:27:46.809Z,100783.75
2022-08-17T11:30:50.706Z,100777.97
2022-08-17T11:33:46.340Z,100792.34
2022-08-17T11:36:51.855Z,100791.03
2022-08-17T11:39:42.267Z,100791.69
2022-08-17T11:42:44.934Z,100786.28
2022-08-17T11:45:56.748Z,100779.66
2022-08-17T11:49:23.417Z,100788.13
2022-08-17T11:52:41.642Z,100779.22
2022-08-17T11:55:43.145Z,100784.63
2022-08-17T11:58:39.335Z,100778.84
2022-08-17T12:01:58.081Z,100775.09
2022-08-17T12:05:09.725Z,100784.13
2022-08-17T12:08:08.386Z,100788.09
2022-08-17T12:12:04.589Z,100793.19
2022-08-17T12:15:08.032Z,100796.53
2022-08-17T12:17:57.672Z,100807.78
2022-08-17T12:20:56.620Z,100808.25
2022-08-17T12:24:11.829Z,100808.28
2022-08-17T12:27:03.906Z,100812.41
2022-08-17T12:29:56.075Z,100820.34
2022-08-17T12:32:49.074Z,100829.25
2022-08-17T12:35:40.365Z,100829.91
2022-08-17T12:38:34.019Z,100832.88
2022-08-17T12:41:42.274Z,100832.03
2022-08-17T12:44:36.339Z,100824.72
2022-08-17T12:47:39.052Z,100831.56
2022-08-17T12:50:30.278Z,100830.38
2022-08-17T12:53:31.563Z,100838.91
2022-08-17T12:56:21.886Z,100848.81
2022-08-17T12:59:12.791Z,100857.78
2022-08-17T13:02:04.270Z,100871.47
2022-08-17T13:04:53.419Z,100875.19
2022-08-17T13:07:44.947Z,100876.78
2022-08-17T13:10:37.221Z,100880.97
2022-08-17T13:13:37.095Z,100884.06
2022-08-17T13:16:32.933Z,100889.19
2022-08-17T13:19:40.016Z,100882.97
2022-08-17T13:22:33.788Z,100891.28
2022-08-17T13:25:23.796Z,100891.66
2022-08-17T13:28:35.761Z,100897.88
2022-08-17T13:31:52.806Z,100903.28
2022-08-17T13:35:13.082Z,100907.03
2022-08-17T13:38:03.165Z,100905.63
2022-08-17T13:40:54.889Z,100921.84
2022-08-17T13:43:52.007Z,100913.91
2022-08-17T13:46:41.309Z,100920.16
2022-08-17T13:49:41.510Z,100939.97
2022-08-17T13:52:42.754Z,100942.13
2022-08-17T13:55:34.358Z,100948.19
2022-08-17T13:58:35.916Z,100942.78
2022-08-17T14:01:58.253Z,100938.78
2022-08-17T14:04:49.417Z,100946.03
2022-08-17T14:07:40.881Z,100948.28
2022-08-17T14:10:32.323Z,100942.50
2022-08-17T14:13:23.694Z,100937.09
2022-08-17T14:16:13.570Z,100931.72
2022-08-17T14:19:03.633Z,100928.34
2022-08-17T14:22:00.275Z,100926.69
2022-08-17T14:24:50.880Z,100919.59
2022-08-17T14:27:53.635Z,100925.34
2022-08-17T14:30:44.221Z,100933.44
2022-08-17T14:33:36.397Z,100925.34
2022-08-17T14:36:26.435Z,100923.66
2022-08-17T14:39:17.433Z,100921.72
2022-08-17T14:42:09.897Z,100921.06
2022-08-17T14:45:07.570Z,100917.22
2022-08-17T14:48:18.213Z,100921.72
2022-08-17T14:51:08.395Z,100926.84
2022-08-17T14:53:58.733Z,100925.97
2022-08-17T14:56:49.452Z,100919.75
2022-08-17T14:59:54.274Z,100925.53
2022-08-17T15:02:47.599Z,100921.69
2022-08-17T15:05:39.189Z,100913.97
2022-08-17T15:08:30.639Z,100924.97
2022-08-17T15:11:20.554Z,100912.50
2022-08-17T15:14:10.213Z,100911.84
2022-08-17T15:16:59.489Z,100907.47
2022-08-17T15:19:49.041Z,100896.66
2022-08-17T15:22:39.929Z,100893.69
2022-08-17T15:25:33.170Z,100891.00
2022-08-17T15:28:25.109Z,100899.81
2022-08-17T15:31:15.172Z,100891.34
2022-08-17T15:34:07.933Z,100890.72
2022-08-17T15:36:58.321Z,100895.72
2022-08-17T15:39:47.725Z,100896.47
2022-08-17T15:42:37.972Z,100892.09
2022-08-17T15:45:28.390Z,100900.56
2022-08-17T15:48:19.938Z,100899.25
2022-08-17T15:51:17.974Z,100892.16
2022-08-17T15:54:19.057Z,100893.84
2022-08-17T15:57:11.735Z,100885.94
2022-08-17T16:00:01.789Z,100897.91
2022-08-17T16:03:45.128Z,100901.25
2022-08-17T16:06:11.472Z,100895.88
2022-08-17T16:09:01.864Z,100906.66
2022-08-17T16:11:55.171Z,100902.47
2022-08-17T16:14:46.897Z,100897.91
2022-08-17T16:17:40.310Z,100890.84
2022-08-17T16:20:31.997Z,100889.81
2022-08-17T16:23:21.888Z,100880.91
2022-08-17T16:26:11.855Z,100870.47
2022-08-17T16:29:03.900Z,100869.25
2022-08-17T16:31:54.789Z,100860.06
2022-08-17T16:34:45.387Z,100856.72
2022-08-17T16:37:35.800Z,100857.16
2022-08-17T16:40:28.880Z,100863.00
2022-08-17T16:43:18.881Z,100856.59
2022-08-17T16:46:08.644Z,100856.59
2022-08-17T16:49:01.554Z,100858.63
2022-08-17T16:51:51.828Z,100856.97
2022-08-17T16:54:44.797Z,100855.56
2022-08-17T16:57:35.371Z,100847.63
2022-08-17T17:00:24.664Z,100849.56
2022-08-17T17:03:19.399Z,100840.63
2022-08-17T17:06:16.991Z,100848.72
2022-08-17T17:09:12.762Z,100845.00
2022-08-17T17:12:05.402Z,100841.84
2022-08-17T17:15:00.593Z,100834.97
2022-08-17T17:17:50.998Z,100833.31
2022-08-17T17:20:55.396Z,100826.25
2022-08-17T17:23:50.399Z,100828.28
2022-08-17T17:26:42.416Z,100823.91
2022-08-17T17:30:08.840Z,100812.94
2022-08-17T17:33:05.885Z,100814.28
2022-08-17T17:35:56.816Z,100806.09
2022-08-17T17:38:50.933Z,100806.09
2022-08-17T17:41:59.581Z,100803.03
2022-08-17T17:45:14.161Z,100803.78
2022-08-17T17:48:03.841Z,100796.88
2022-08-17T17:51:11.404Z,100797.16
2022-08-17T17:54:15.082Z,100793.34
2022-08-17T17:57:12.891Z,100794.00
2022-08-17T18:00:10.981Z,100782.75
2022-08-17T18:03:26.986Z,100775.31
2022-08-17T18:06:49.661Z,100770.78
2022-08-17T18:10:01.032Z,100764.06
2022-08-17T18:12:57.253Z,100757.25
2022-08-17T18:15:52.574Z,100755.03
2022-08-17T18:18:45.998Z,100753.06
2022-08-17T18:21:41.197Z,100752.06
2022-08-17T18:24:39.098Z,100749.06
2022-08-17T18:27:57.292Z,100735.22
2022-08-17T18:30:47.188Z,100737.28
2022-08-17T18:33:40.138Z,100725.47
2022-08-17T18:36:32.883Z,100727.69
2022-08-17T18:39:28.808Z,100721.94
2022-08-17T18:42:30.359Z,100723.97
2022-08-17T18:45:42.152Z,100718.22
2022-08-17T18:48:37.468Z,100723.16
2022-08-17T18:51:40.606Z,100735.97
2022-08-17T18:54:32.106Z,100732.25
2022-08-17T18:57:34.255Z,100744.34
2022-08-17T19:00:42.872Z,100739.31
2022-08-17T19:03:32.906Z,100736.47
2022-08-17T19:06:30.767Z,100739.19
2022-08-17T19:09:33.971Z,100742.53
2022-08-17T19:12:29.253Z,100747.09
2022-08-17T19:15:25.187Z,100734.50
2022-08-17T19:18:26.147Z,100732.97
2022-08-17T19:21:37.928Z,100716.97
2022-08-17T19:24:29.894Z,100735.38
2022-08-17T19:27:41.764Z,100727.59
2022-08-17T19:30:37.731Z,100736.56
2022-08-17T19:33:32.728Z,100732.84
2022-08-17T19:36:50.991Z,100732.03
2022-08-17T19:39:52.415Z,100734.41
2022-08-17T19:43:06.215Z,100736.09
2022-08-17T19:46:21.271Z,100736.03
2022-08-17T19:49:18.212Z,100734.88
2022-08-17T19:52:39.008Z,100730.34
2022-08-17T19:55:44.932Z,100736.75
2022-08-17T19:59:22.678Z,100738.72
2022-08-17T20:02:25.964Z,100748.53
2022-08-17T20:06:00.881Z,100750.38
2022-08-17T20:09:18.331Z,100751.72
2022-08-17T20:12:13.510Z,100749.72
2022-08-17T20:15:13.333Z,100747.53
2022-08-17T20:18:07.633Z,100738.44
2022-08-17T20:21:27.257Z,100734.56
2022-08-17T20:24:25.363Z,100739.66
2022-08-17T20:27:18.194Z,100735.09
2022-08-17T20:30:35.820Z,100741.34
2022-08-17T20:33:31.174Z,100736.66
2022-08-17T20:36:24.021Z,100742.72
2022-08-17T20:39:37.488Z,100742.34
2022-08-17T20:42:28.444Z,100749.94
2022-08-17T20:45:23.509Z,100754.66
2022-08-17T20:48:36.982Z,100746.59
2022-08-17T20:51:36.126Z,100757.34
2022-08-17T20:54:56.587Z,100749.56
2022-08-17T20:57:48.692Z,100744.38
2022-08-17T21:00:47.088Z,100755.31
2022-08-17T21:03:51.304Z,100751.31
2022-08-17T21:07:19.749Z,100751.25
2022-08-17T21:10:28.404Z,100751.25
2022-08-17T21:13:18.030Z,100749.28
2022-08-17T21:16:10.616Z,100751.97
2022-08-17T21:19:07.533Z,100741.09
2022-08-17T21:22:13.405Z,100743.88
2022-08-17T21:25:21.331Z,100743.22
2022-08-17T21:29:00.518Z,100739.16
2022-08-17T21:32:06.675Z,100743.22
2022-08-17T21:35:33.584Z,100736.16
2022-08-17T21:38:38.127Z,100743.22
2022-08-17T21:41:56.136Z,100744.25
2022-08-17T21:44:51.395Z,100748.97
2022-08-17T21:47:46.581Z,100736.88
2022-08-17T21:50:36.981Z,100737.38
2022-08-17T21:53:33.262Z,100738.19
2022-08-17T21:56:31.758Z,100746.84
2022-08-17T21:59:21.202Z,100736.88
2022-08-17T22:02:32.808Z,100735.34
2022-08-17T22:05:39.406Z,100738.56
2022-08-17T22:08:29.083Z,100734.84
2022-08-17T22:11:19.907Z,100733.19
2022-08-17T22:14:19.452Z,100724.09
2022-08-17T22:17:17.634Z,100736.88
2022-08-17T22:20:17.306Z,100736.72
2022-08-17T22:23:31.796Z,100747.50
2022-08-17T22:26:26.809Z,100747.66
2022-08-17T22:29:57.400Z,100747.66
2022-08-17T22:32:50.686Z,100754.25
2022-08-17T22:35:45.325Z,100762.13
2022-08-17T22:38:36.053Z,100766.34
2022-08-17T22:41:33.681Z,100772.53
2022-08-17T22:44:33.202Z,100768.84
2022-08-17T22:47:52.855Z,100773.88
2022-08-17T22:50:42.678Z,100782.47
2022-08-17T22:53:50.444Z,100786.66
2022-08-17T22:57:24.098Z,100786.00
2022-08-17T23:00:32.780Z,100785.13
2022-08-17T23:03:24.512Z,100792.03
2022-08-17T23:06:14.590Z,100788.47
2022-08-17T23:09:07.195Z,100788.47
2022-08-17T23:11:59.899Z,100791.63
2022-08-17T23:14:52.730Z,100798.50
2022-08-17T23:17:44.490Z,100807.28
2022-08-17T23:20:40.899Z,100804.88
2022-08-17T23:23:30.289Z,100812.16
2022-08-17T23:26:22.327Z,100822.56
2022-08-17T23:29:11.792Z,100824.25
2022-08-17T23:32:02.846Z,100818.66
2022-08-17T23:34:52.947Z,100825.25
2022-08-17T23:37:42.805Z,100832.31
2022-08-17T23:40:32.571Z,100832.31
2022-08-17T23:43:25.584Z,100834.34
2022-08-17T23:46:18.866Z,100834.81
2022-08-17T23:49:08.974Z,100831.25
2022-08-17T23:52:00.462Z,100832.94
2022-08-17T23:54:51.092Z,100834.72
2022-08-17T23:57:42.755Z,100838.91
